Pingree, Idaho
Current Conditions -  °F | °C
As of 8:53 PM on Thursday 27 Nov 2014 (Local Time) from KPIH Reporting Station
Clear Clear  
Wind Chill: 51°   Ceiling: Unl
Heat Index: 51°   Visibility: 10mi
Dew Point: 24°   Wind: 7mph
Humidity: 35%   Direction: 160°SSE
Pressure: 30.06"   Gusts: NA
Location:  43.12°N, 112.6°W
Report Text: KPIH 280353Z 16006KT 10SM CLR 11/M04 A3006 RMK AO2 SLP164 T01061044
Loading
Personal Weather Stations






























Interactive Weather Map New forecast layout! Learn more

10-Day Weather Forecast

Advertisements
Track Severe Weather on mobile